LJMB/MBX METAR and TAF weather

Enter ICAO airport designator
Station Type Date Time Source
LJMB METAR 2021/04/14 20:00 UTC NOAA

LJMB 142000Z 34005KT CAVOK 02/M02 Q1023


Station Type Date Time Source
LJMB Decoded METAR 2021/04/14 20:00 UTC NOAA

Maribor / Slivnica, Slovenia (LJMB) 46-29N 015-41E 265M
Apr 14, 2021 - 04:00 PM EDT / 2021.04.14 2000 UTC
Wind: from the NNW (340 degrees) at 6 MPH (5 KT):0
Visibility: greater than 7 mile(s):0
Temperature: 35 F (2 C)
Windchill: 30 F (-1 C):1
Dew Point: 28 F (-2 C)
Relative Humidity: 74%
Pressure (altimeter): 30.21 in. Hg (1023 hPa)
ob: LJMB 142000Z 34005KT CAVOK 02/M02 Q1023
cycle: 20

Station Type Date Time Source
LJMB TAF 2021/04/14 18:05 UTC NOAA

TAF LJMB 141700Z 1418/1518 36005KT CAVOK
TEMPO 1509/1518 01012KT SCT050TCU

Example: see airport list